Boyle, Canada
Current Conditions -  °F | °C
As of 3:00 AM on Monday 26 Jan 2015 (Local Time) from CYED Reporting Station
Scattered Clouds Scattered Clouds  
Wind Chill: 35°   Ceiling: Unl
Heat Index: 39°   Visibility: 9mi
Dew Point: 28°   Wind: 6mph
Humidity: 65%   Direction: 310°NW
Pressure: 29.83"   Gusts: NA
Location:  54.59°N, 112.81°W
Report Text: CYED 261000Z AUTO 31005KT 9SM SCT043 04/M02 A2983 RMK SLP120
Loading
Personal Weather Stations






























Interactive Weather Map New forecast layout! Learn more

10-Day Weather Forecast

Advertisements
Track Severe Weather on mobile